createdAt,value
2023-05-08T00:00:47.234Z,549.00
2023-05-08T00:01:47.285Z,551.00
2023-05-08T00:02:47.350Z,550.00
2023-05-08T00:03:47.544Z,549.00
2023-05-08T00:04:47.403Z,547.00
2023-05-08T00:05:47.423Z,547.00
2023-05-08T00:06:47.465Z,550.00
2023-05-08T00:07:47.492Z,550.00
2023-05-08T00:08:47.538Z,551.00
2023-05-08T00:09:47.582Z,549.00
2023-05-08T00:10:47.620Z,548.00
2023-05-08T00:11:47.670Z,547.00
2023-05-08T00:12:47.718Z,546.00
2023-05-08T00:13:47.750Z,546.00
2023-05-08T00:14:47.794Z,543.00
2023-05-08T00:15:47.822Z,543.00
2023-05-08T00:16:47.907Z,544.00
2023-05-08T00:17:47.932Z,544.00
2023-05-08T00:18:47.950Z,544.00
2023-05-08T00:19:48.013Z,546.00
2023-05-08T00:20:48.049Z,551.00
2023-05-08T00:21:48.086Z,552.00
2023-05-08T00:22:48.120Z,551.00
2023-05-08T00:23:48.183Z,551.00
2023-05-08T00:24:48.228Z,554.00
2023-05-08T00:25:48.254Z,555.00
2023-05-08T00:26:48.303Z,552.00
2023-05-08T00:27:48.334Z,551.00
2023-05-08T00:28:48.378Z,553.00
2023-05-08T00:29:48.388Z,553.00
2023-05-08T00:30:48.480Z,554.00
2023-05-08T00:31:48.520Z,552.00
2023-05-08T00:32:48.624Z,550.00
2023-05-08T00:33:48.549Z,549.00
2023-05-08T00:34:48.596Z,547.00
2023-05-08T00:35:48.668Z,548.00
2023-05-08T00:36:48.664Z,550.00
2023-05-08T00:37:48.710Z,550.00
2023-05-08T00:38:48.728Z,549.00
2023-05-08T00:39:48.754Z,553.00
2023-05-08T00:40:48.769Z,556.00
2023-05-08T00:41:48.846Z,556.00
2023-05-08T00:42:48.890Z,556.00
2023-05-08T00:43:48.883Z,554.00
2023-05-08T00:44:48.957Z,553.00
2023-05-08T00:45:48.969Z,553.00
2023-05-08T00:46:49.068Z,553.00
2023-05-08T00:47:49.052Z,553.00
2023-05-08T00:48:49.129Z,553.00
2023-05-08T00:49:49.124Z,553.00
2023-05-08T00:50:49.172Z,552.00
2023-05-08T00:51:49.156Z,553.00
2023-05-08T00:52:49.249Z,551.00
2023-05-08T00:53:49.249Z,552.00
2023-05-08T00:54:49.287Z,553.00
2023-05-08T00:55:49.328Z,553.00
2023-05-08T00:56:49.390Z,551.00
2023-05-08T00:57:49.399Z,550.00
2023-05-08T00:58:49.447Z,549.00
2023-05-08T00:59:49.453Z,548.00
2023-05-08T01:00:49.494Z,549.00
2023-05-08T01:01:49.542Z,551.00
2023-05-08T01:02:49.665Z,549.00
2023-05-08T01:03:49.693Z,548.00
2023-05-08T01:04:49.640Z,549.00
2023-05-08T01:05:49.668Z,551.00
2023-05-08T01:06:49.721Z,554.00
2023-05-08T01:07:49.717Z,553.00
2023-05-08T01:08:49.777Z,553.00
2023-05-08T01:09:49.790Z,553.00
2023-05-08T01:10:49.843Z,554.00
2023-05-08T01:11:49.893Z,552.00
2023-05-08T01:12:49.951Z,552.00
2023-05-08T01:13:49.955Z,552.00
2023-05-08T01:14:50.006Z,553.00
2023-05-08T01:15:50.004Z,552.00
2023-05-08T01:16:50.029Z,552.00
2023-05-08T01:17:50.110Z,553.00
2023-05-08T01:18:50.150Z,555.00
2023-05-08T01:19:50.159Z,555.00
2023-05-08T01:20:50.184Z,550.00
2023-05-08T01:21:50.198Z,551.00
2023-05-08T01:22:50.293Z,553.00
2023-05-08T01:23:50.311Z,550.00
2023-05-08T01:24:50.310Z,552.00
2023-05-08T01:25:50.358Z,551.00
2023-05-08T01:26:50.395Z,550.00
2023-05-08T01:27:50.443Z,549.00
2023-05-08T01:28:50.480Z,551.00
2023-05-08T01:29:50.481Z,553.00
2023-05-08T01:30:50.495Z,551.00
2023-05-08T01:31:50.568Z,553.00
2023-05-08T01:32:50.705Z,551.00
2023-05-08T01:33:50.676Z,552.00
2023-05-08T01:34:50.684Z,552.00
2023-05-08T01:35:50.716Z,552.00
2023-05-08T01:36:50.719Z,552.00
2023-05-08T01:37:50.770Z,552.00
2023-05-08T01:38:50.832Z,552.00
2023-05-08T01:39:50.870Z,550.00
2023-05-08T01:40:50.898Z,550.00
2023-05-08T01:41:50.922Z,550.00
2023-05-08T01:42:50.962Z,551.00
2023-05-08T01:43:51.008Z,550.00
2023-05-08T01:44:51.032Z,551.00
2023-05-08T01:45:51.099Z,550.00
2023-05-08T01:46:51.186Z,552.00
2023-05-08T01:47:51.152Z,552.00
2023-05-08T01:48:51.170Z,552.00
2023-05-08T01:49:51.222Z,549.00
2023-05-08T01:50:51.254Z,549.00
2023-05-08T01:51:51.268Z,551.00
2023-05-08T01:52:51.330Z,552.00
2023-05-08T01:53:51.348Z,554.00
2023-05-08T01:54:51.358Z,553.00
2023-05-08T01:55:51.410Z,552.00
2023-05-08T01:56:51.439Z,553.00
2023-05-08T01:57:51.488Z,552.00
2023-05-08T01:58:51.486Z,552.00
2023-05-08T01:59:51.530Z,552.00
2023-05-08T02:00:51.607Z,551.00
2023-05-08T02:01:51.635Z,551.00
2023-05-08T02:02:51.676Z,551.00
2023-05-08T02:03:51.700Z,553.00
2023-05-08T02:04:51.724Z,555.00
2023-05-08T02:05:51.741Z,559.00
2023-05-08T02:06:51.718Z,558.00
2023-05-08T02:07:51.793Z,561.00
2023-05-08T02:08:51.820Z,560.00
2023-05-08T02:09:51.831Z,559.00
2023-05-08T02:10:51.871Z,558.00
2023-05-08T02:11:51.937Z,560.00
2023-05-08T02:12:51.990Z,563.00
2023-05-08T02:13:51.980Z,560.00
2023-05-08T02:14:52.028Z,561.00
2023-05-08T02:15:52.049Z,558.00
2023-05-08T02:16:52.109Z,555.00
2023-05-08T02:17:52.221Z,555.00
2023-05-08T02:18:52.140Z,553.00
2023-05-08T02:19:52.150Z,554.00
2023-05-08T02:20:52.178Z,552.00
2023-05-08T02:21:52.227Z,553.00
2023-05-08T02:22:52.332Z,555.00
2023-05-08T02:23:52.273Z,556.00
2023-05-08T02:24:52.330Z,555.00
2023-05-08T02:25:52.351Z,555.00
2023-05-08T02:26:52.373Z,555.00
2023-05-08T02:27:52.415Z,557.00
2023-05-08T02:28:52.447Z,557.00
2023-05-08T02:29:52.478Z,555.00
2023-05-08T02:30:52.509Z,556.00
2023-05-08T02:31:52.596Z,557.00
2023-05-08T02:32:52.563Z,557.00
2023-05-08T02:33:52.588Z,557.00
2023-05-08T02:35:02.501Z,557.00
2023-05-08T02:35:53.618Z,558.00
2023-05-08T02:36:52.591Z,558.00
2023-05-08T02:37:52.635Z,557.00
2023-05-08T02:38:52.579Z,557.00
2023-05-08T02:39:52.621Z,556.00
2023-05-08T02:40:52.559Z,556.00
2023-05-08T02:41:52.594Z,554.00
2023-05-08T02:42:52.568Z,557.00
2023-05-08T02:43:52.558Z,557.00
2023-05-08T02:44:52.564Z,557.00
2023-05-08T02:45:52.675Z,557.00
2023-05-08T02:46:52.538Z,557.00
2023-05-08T02:47:52.591Z,557.00
2023-05-08T02:48:52.517Z,556.00
2023-05-08T02:49:52.523Z,554.00
2023-05-08T02:50:52.556Z,556.00
2023-05-08T02:51:52.574Z,552.00
2023-05-08T02:52:52.622Z,551.00
2023-05-08T02:53:52.623Z,551.00
2023-05-08T02:54:52.666Z,551.00
2023-05-08T02:55:52.700Z,551.00
2023-05-08T02:56:52.743Z,549.00
2023-05-08T02:57:52.750Z,552.00
2023-05-08T02:58:52.795Z,551.00
2023-05-08T02:59:52.830Z,549.00
2023-05-08T03:00:52.853Z,550.00
2023-05-08T03:01:53.022Z,552.00
2023-05-08T03:02:52.993Z,554.00
2023-05-08T03:03:53.214Z,553.00
2023-05-08T03:04:52.965Z,551.00
2023-05-08T03:05:52.975Z,551.00
2023-05-08T03:06:53.026Z,552.00
2023-05-08T03:07:53.038Z,553.00
2023-05-08T03:08:53.085Z,552.00
2023-05-08T03:09:53.116Z,552.00
2023-05-08T03:10:53.128Z,552.00
2023-05-08T03:11:53.145Z,555.00
2023-05-08T03:12:53.223Z,557.00
2023-05-08T03:13:53.216Z,560.00
2023-05-08T03:14:53.259Z,559.00
2023-05-08T03:15:53.325Z,558.00
2023-05-08T03:16:53.294Z,557.00
2023-05-08T03:17:53.371Z,556.00
2023-05-08T03:18:53.423Z,556.00
2023-05-08T03:19:53.389Z,558.00
2023-05-08T03:20:53.434Z,558.00
2023-05-08T03:21:53.480Z,558.00
2023-05-08T03:22:53.513Z,559.00
2023-05-08T03:23:53.554Z,560.00
2023-05-08T03:24:53.596Z,563.00
2023-05-08T03:25:53.576Z,562.00
2023-05-08T03:26:53.618Z,560.00
2023-05-08T03:27:53.654Z,564.00
2023-05-08T03:28:53.690Z,565.00
2023-05-08T03:29:53.715Z,568.00
2023-05-08T03:30:53.760Z,571.00
2023-05-08T03:31:53.738Z,572.00
2023-05-08T03:32:53.797Z,573.00
2023-05-08T03:33:53.765Z,570.00
2023-05-08T03:34:53.772Z,570.00
2023-05-08T03:35:53.765Z,569.00
2023-05-08T03:36:53.751Z,568.00
2023-05-08T03:37:53.815Z,568.00
2023-05-08T03:38:53.840Z,568.00
2023-05-08T03:39:53.840Z,568.00
2023-05-08T03:40:53.864Z,569.00
2023-05-08T03:41:53.914Z,568.00
2023-05-08T03:42:53.948Z,566.00
2023-05-08T03:43:53.974Z,565.00
2023-05-08T03:44:54.006Z,565.00
2023-05-08T03:45:54.006Z,565.00
2023-05-08T03:46:54.091Z,564.00
2023-05-08T03:47:54.136Z,565.00
2023-05-08T03:48:54.105Z,569.00
2023-05-08T03:49:54.109Z,566.00
2023-05-08T03:50:54.164Z,566.00
2023-05-08T03:51:54.206Z,563.00
2023-05-08T03:52:54.239Z,561.00
2023-05-08T03:53:54.276Z,563.00
2023-05-08T03:54:54.285Z,563.00
2023-05-08T03:55:54.296Z,560.00
2023-05-08T03:56:54.345Z,560.00
2023-05-08T03:57:54.357Z,563.00
2023-05-08T03:58:54.376Z,565.00
2023-05-08T03:59:54.430Z,568.00
2023-05-08T04:00:54.468Z,565.00
2023-05-08T04:01:54.475Z,562.00
2023-05-08T04:02:54.584Z,561.00
2023-05-08T04:03:54.733Z,562.00
2023-05-08T04:04:54.556Z,560.00
2023-05-08T04:05:54.585Z,560.00
2023-05-08T04:06:54.608Z,560.00
2023-05-08T04:07:54.618Z,559.00
2023-05-08T04:08:54.668Z,556.00
2023-05-08T04:09:54.674Z,560.00
2023-05-08T04:10:54.688Z,559.00
2023-05-08T04:11:54.741Z,558.00
2023-05-08T04:12:54.769Z,559.00
2023-05-08T04:13:54.782Z,562.00
2023-05-08T04:14:56.521Z,561.00
2023-05-08T04:15:54.853Z,561.00
2023-05-08T04:16:54.891Z,559.00
2023-05-08T04:17:54.928Z,560.00
2023-05-08T04:18:54.911Z,560.00
2023-05-08T04:19:54.940Z,560.00
2023-05-08T04:20:54.976Z,560.00
2023-05-08T04:21:55.003Z,562.00
2023-05-08T04:22:55.015Z,561.00
2023-05-08T04:23:55.079Z,560.00
2023-05-08T04:24:55.105Z,557.00
2023-05-08T04:25:55.132Z,557.00
2023-05-08T04:26:55.132Z,558.00
2023-05-08T04:27:55.202Z,557.00
2023-05-08T04:28:55.208Z,559.00
2023-05-08T04:29:55.249Z,559.00
2023-05-08T04:30:55.250Z,561.00
2023-05-08T04:31:55.280Z,564.00
2023-05-08T04:32:55.323Z,564.00
2023-05-08T04:33:55.312Z,562.00
2023-05-08T04:34:55.406Z,561.00
2023-05-08T04:35:55.400Z,561.00
2023-05-08T04:36:55.427Z,561.00
2023-05-08T04:37:55.467Z,560.00
2023-05-08T04:38:55.497Z,565.00
2023-05-08T04:39:55.523Z,567.00
2023-05-08T04:40:55.517Z,567.00
2023-05-08T04:41:55.558Z,567.00
2023-05-08T04:42:55.604Z,567.00
2023-05-08T04:43:55.626Z,564.00
2023-05-08T04:44:55.650Z,563.00
2023-05-08T04:45:55.727Z,562.00
2023-05-08T04:46:55.674Z,563.00
2023-05-08T04:47:55.717Z,562.00
2023-05-08T04:48:55.746Z,563.00
2023-05-08T04:49:55.771Z,563.00
2023-05-08T04:50:55.801Z,565.00
2023-05-08T04:51:55.850Z,566.00
2023-05-08T04:52:55.871Z,568.00
2023-05-08T04:53:55.880Z,568.00
2023-05-08T04:54:55.923Z,567.00
2023-05-08T04:55:55.930Z,568.00
2023-05-08T04:56:55.982Z,565.00
2023-05-08T04:57:55.980Z,565.00
2023-05-08T04:58:56.040Z,564.00
2023-05-08T04:59:56.070Z,565.00
2023-05-08T05:00:56.085Z,566.00
2023-05-08T05:02:03.202Z,567.00
2023-05-08T05:02:56.160Z,569.00
2023-05-08T05:03:56.100Z,568.00
2023-05-08T05:04:56.100Z,567.00
2023-05-08T05:05:56.093Z,571.00
2023-05-08T05:06:56.090Z,568.00
2023-05-08T05:07:56.102Z,569.00
2023-05-08T05:08:56.110Z,569.00
2023-05-08T05:09:56.096Z,571.00
2023-05-08T05:10:56.073Z,574.00
2023-05-08T05:11:57.968Z,576.00
2023-05-08T05:12:56.090Z,575.00
2023-05-08T05:13:56.032Z,573.00
2023-05-08T05:14:56.036Z,570.00
2023-05-08T05:15:56.077Z,570.00
2023-05-08T05:16:56.008Z,569.00
2023-05-08T05:17:56.037Z,567.00
2023-05-08T05:18:56.026Z,569.00
2023-05-08T05:19:56.029Z,572.00
2023-05-08T05:20:56.069Z,575.00
2023-05-08T05:21:56.077Z,575.00
2023-05-08T05:22:56.135Z,576.00
2023-05-08T05:23:56.127Z,577.00
2023-05-08T05:24:56.152Z,575.00
2023-05-08T05:25:56.214Z,574.00
2023-05-08T05:26:56.219Z,575.00
2023-05-08T05:27:56.282Z,576.00
2023-05-08T05:28:56.311Z,575.00
2023-05-08T05:29:56.328Z,573.00
2023-05-08T05:30:56.335Z,573.00
2023-05-08T05:31:56.500Z,575.00
2023-05-08T05:32:56.454Z,579.00
2023-05-08T05:33:56.505Z,731.00
2023-05-08T05:34:56.448Z,663.00
2023-05-08T05:35:56.502Z,662.00
2023-05-08T05:36:56.512Z,664.00
2023-05-08T05:37:56.576Z,672.00
2023-05-08T05:38:57.021Z,764.00
2023-05-08T05:39:57.688Z,765.00
2023-05-08T05:40:56.681Z,774.00
2023-05-08T05:41:56.639Z,777.00
2023-05-08T05:42:57.497Z,789.00
2023-05-08T05:43:56.567Z,871.00
2023-05-08T05:44:56.574Z,913.00
2023-05-08T05:46:04.070Z,913.00
2023-05-08T05:46:56.638Z,933.00
2023-05-08T05:47:56.617Z,958.00
2023-05-08T05:48:57.021Z,1008.00
2023-05-08T05:49:56.613Z,1029.00
2023-05-08T05:50:56.613Z,1038.00
2023-05-08T05:51:56.529Z,1046.00
2023-05-08T05:52:56.545Z,1057.00
2023-05-08T05:53:56.524Z,1073.00
2023-05-08T05:54:56.526Z,1091.00
2023-05-08T05:55:56.574Z,1121.00
2023-05-08T05:56:56.477Z,1148.00
2023-05-08T05:57:56.488Z,1151.00
2023-05-08T05:58:56.505Z,1156.00
2023-05-08T05:59:56.537Z,1160.00
2023-05-08T06:00:56.585Z,1175.00
2023-05-08T06:01:56.606Z,1179.00
2023-05-08T06:02:56.698Z,1195.00
2023-05-08T06:03:56.582Z,1216.00
2023-05-08T06:04:56.428Z,1224.00
2023-05-08T06:05:56.684Z,1235.00
2023-05-08T06:06:56.425Z,1243.00
2023-05-08T06:07:56.433Z,1249.00
2023-05-08T06:08:56.460Z,1262.00
2023-05-08T06:09:56.428Z,1275.00
2023-05-08T06:10:56.559Z,1273.00
2023-05-08T06:11:56.551Z,1125.00
2023-05-08T06:12:56.633Z,1130.00
2023-05-08T06:13:57.043Z,1166.00
2023-05-08T06:14:56.803Z,1047.00
2023-05-08T06:15:56.858Z,1041.00
2023-05-08T06:16:56.952Z,942.00
2023-05-08T06:17:57.081Z,881.00
2023-05-08T06:18:57.005Z,942.00
2023-05-08T06:19:57.038Z,1005.00
2023-05-08T06:20:57.014Z,824.00
2023-05-08T06:21:57.114Z,875.00
2023-05-08T06:22:57.059Z,937.00
2023-05-08T06:23:57.098Z,891.00
2023-05-08T06:24:57.064Z,904.00
2023-05-08T06:25:57.056Z,906.00
2023-05-08T06:26:57.066Z,874.00
2023-05-08T06:27:57.086Z,879.00
2023-05-08T06:28:57.043Z,908.00
2023-05-08T06:29:57.540Z,866.00
2023-05-08T06:30:57.129Z,862.00
2023-05-08T06:31:57.101Z,902.00
2023-05-08T06:32:57.123Z,776.00
2023-05-08T06:33:57.044Z,849.00
2023-05-08T06:34:57.036Z,866.00
2023-05-08T06:35:57.058Z,761.00
2023-05-08T06:36:57.070Z,795.00
2023-05-08T06:37:57.141Z,737.00
2023-05-08T06:38:57.131Z,779.00
2023-05-08T06:40:11.056Z,839.00
2023-05-08T06:40:58.074Z,883.00
2023-05-08T06:41:57.103Z,888.00
2023-05-08T06:42:57.139Z,892.00
2023-05-08T06:43:57.091Z,893.00
2023-05-08T06:44:57.610Z,962.00
2023-05-08T06:45:57.182Z,1006.00
2023-05-08T06:46:57.235Z,1005.00
2023-05-08T06:47:57.300Z,1006.00
2023-05-08T06:48:58.220Z,1055.00
2023-05-08T06:49:58.201Z,1082.00
2023-05-08T06:50:57.261Z,1097.00
2023-05-08T06:51:58.417Z,1095.00
2023-05-08T06:52:57.146Z,1106.00
2023-05-08T06:53:57.187Z,1126.00
2023-05-08T06:54:57.189Z,1146.00
2023-05-08T06:55:57.249Z,1159.00
2023-05-08T06:56:57.126Z,1174.00
2023-05-08T06:57:57.149Z,1186.00
2023-05-08T06:59:07.754Z,1193.00
2023-05-08T06:59:59.220Z,1199.00
2023-05-08T07:00:57.180Z,1208.00
2023-05-08T07:01:57.456Z,1214.00
2023-05-08T07:02:57.248Z,1212.00
2023-05-08T07:03:57.171Z,1216.00
2023-05-08T07:04:57.243Z,1224.00
2023-05-08T07:05:57.114Z,1223.00
2023-05-08T07:06:57.160Z,1227.00
2023-05-08T07:07:57.060Z,1243.00
2023-05-08T07:08:57.070Z,1264.00
2023-05-08T07:09:57.574Z,1292.00
2023-05-08T07:10:57.060Z,1297.00
2023-05-08T07:11:57.031Z,1364.00
2023-05-08T07:12:57.255Z,1352.00
2023-05-08T07:13:57.271Z,1361.00
2023-05-08T07:14:58.018Z,1374.00
2023-05-08T07:15:57.253Z,1421.00
2023-05-08T07:16:58.135Z,1426.00
2023-05-08T07:17:57.163Z,1434.00
2023-05-08T07:18:57.209Z,1444.00
2023-05-08T07:19:57.092Z,1452.00
2023-05-08T07:20:57.192Z,1443.00
2023-05-08T07:21:57.150Z,1451.00
2023-05-08T07:22:57.085Z,1471.00
2023-05-08T07:23:57.087Z,1479.00
2023-05-08T07:24:57.570Z,1492.00
2023-05-08T07:25:57.078Z,1509.00
2023-05-08T07:26:57.066Z,1501.00
2023-05-08T07:27:58.644Z,1491.00
2023-05-08T07:28:57.044Z,1485.00
2023-05-08T07:29:57.089Z,1488.00
2023-05-08T07:30:57.076Z,1496.00
2023-05-08T07:31:57.129Z,1501.00
2023-05-08T07:32:57.116Z,1504.00
2023-05-08T07:33:57.062Z,1361.00
2023-05-08T07:34:57.024Z,1218.00
2023-05-08T07:35:57.032Z,1098.00
2023-05-08T07:36:56.996Z,837.00
2023-05-08T07:37:57.002Z,810.00
2023-05-08T07:38:57.016Z,802.00
2023-05-08T07:39:57.020Z,781.00
2023-05-08T07:40:57.192Z,743.00
2023-05-08T07:41:56.971Z,743.00
2023-05-08T07:42:56.984Z,763.00
2023-05-08T07:43:56.973Z,832.00
2023-05-08T07:44:56.990Z,929.00
2023-05-08T07:45:56.927Z,923.00
2023-05-08T07:46:56.952Z,1004.00
2023-05-08T07:47:57.073Z,980.00
2023-05-08T07:48:56.941Z,977.00
2023-05-08T07:49:57.073Z,975.00
2023-05-08T07:50:56.932Z,982.00
2023-05-08T07:51:56.895Z,1003.00
2023-05-08T07:52:56.896Z,1021.00
2023-05-08T07:53:56.895Z,1038.00
2023-05-08T07:54:57.091Z,1075.00
2023-05-08T07:55:56.913Z,1098.00
2023-05-08T07:56:56.880Z,1121.00
2023-05-08T07:57:56.827Z,1139.00
2023-05-08T07:58:56.818Z,1172.00
2023-05-08T07:59:57.034Z,1181.00
2023-05-08T08:00:56.830Z,1194.00
2023-05-08T08:01:56.862Z,1191.00
2023-05-08T08:02:56.922Z,1210.00
2023-05-08T08:03:57.013Z,1228.00
2023-05-08T08:04:57.107Z,1247.00
2023-05-08T08:05:56.843Z,1269.00
2023-05-08T08:06:56.800Z,1282.00
2023-05-08T08:07:56.897Z,1287.00
2023-05-08T08:08:56.778Z,1289.00
2023-05-08T08:09:56.787Z,1202.00
2023-05-08T08:10:56.814Z,1022.00
2023-05-08T08:11:56.757Z,1081.00
2023-05-08T08:12:56.900Z,1166.00
2023-05-08T08:13:56.738Z,1183.00
2023-05-08T08:14:56.734Z,1188.00
2023-05-08T08:15:56.792Z,1192.00
2023-05-08T08:16:56.785Z,1196.00
2023-05-08T08:17:56.799Z,1202.00
2023-05-08T08:18:56.707Z,1214.00
2023-05-08T08:19:56.818Z,1227.00
2023-05-08T08:20:56.717Z,1234.00
2023-05-08T08:21:56.733Z,1250.00
2023-05-08T08:22:56.775Z,1264.00
2023-05-08T08:23:56.705Z,1282.00
2023-05-08T08:24:56.753Z,1298.00
2023-05-08T08:25:56.685Z,1316.00
2023-05-08T08:26:56.653Z,1331.00
2023-05-08T08:27:56.677Z,1334.00
2023-05-08T08:28:56.704Z,1349.00
2023-05-08T08:30:15.178Z,1354.00
2023-05-08T08:30:58.146Z,1353.00
2023-05-08T08:31:56.649Z,1364.00
2023-05-08T08:32:56.642Z,1379.00
2023-05-08T08:33:56.649Z,1447.00
2023-05-08T08:34:56.635Z,1432.00
2023-05-08T08:35:57.185Z,923.00
2023-05-08T08:36:56.633Z,766.00
2023-05-08T08:37:56.952Z,767.00
2023-05-08T08:38:56.592Z,724.00
2023-05-08T08:39:57.506Z,757.00
2023-05-08T08:40:56.596Z,689.00
2023-05-08T08:41:56.599Z,704.00
2023-05-08T08:42:56.584Z,699.00
2023-05-08T08:43:56.589Z,696.00
2023-05-08T08:44:56.580Z,701.00
2023-05-08T08:45:56.636Z,646.00
2023-05-08T08:46:57.568Z,642.00
2023-05-08T08:47:56.574Z,632.00
2023-05-08T08:48:56.555Z,650.00
2023-05-08T08:49:56.534Z,649.00
2023-05-08T08:50:56.595Z,643.00
2023-05-08T08:51:56.620Z,646.00
2023-05-08T08:52:56.521Z,648.00
2023-05-08T08:53:56.539Z,652.00
2023-05-08T08:54:56.576Z,665.00
2023-05-08T08:55:56.580Z,716.00
2023-05-08T08:56:56.482Z,729.00
2023-05-08T08:57:56.601Z,754.00
2023-05-08T08:58:56.643Z,763.00
2023-05-08T08:59:56.603Z,782.00
2023-05-08T09:00:56.655Z,784.00
2023-05-08T09:01:56.716Z,785.00
2023-05-08T09:02:56.824Z,805.00
2023-05-08T09:03:56.828Z,817.00
2023-05-08T09:04:56.736Z,813.00
2023-05-08T09:05:57.135Z,811.00
2023-05-08T09:06:56.790Z,813.00
2023-05-08T09:07:56.835Z,820.00
2023-05-08T09:08:56.790Z,820.00
2023-05-08T09:09:56.797Z,858.00
2023-05-08T09:10:57.138Z,883.00
2023-05-08T09:11:56.807Z,903.00
2023-05-08T09:12:56.920Z,918.00
2023-05-08T09:13:56.811Z,929.00
2023-05-08T09:14:56.840Z,936.00
2023-05-08T09:15:57.130Z,943.00
2023-05-08T09:16:56.932Z,949.00
2023-05-08T09:17:57.053Z,966.00
2023-05-08T09:18:57.126Z,986.00
2023-05-08T09:19:57.120Z,1013.00
2023-05-08T09:20:57.162Z,1045.00
2023-05-08T09:21:57.255Z,1055.00
2023-05-08T09:22:57.357Z,1066.00
2023-05-08T09:23:57.450Z,1075.00
2023-05-08T09:24:57.390Z,1071.00
2023-05-08T09:25:57.644Z,1074.00
2023-05-08T09:26:57.426Z,1081.00
2023-05-08T09:27:57.495Z,1100.00
2023-05-08T09:28:57.592Z,1113.00
2023-05-08T09:29:57.644Z,1116.00
2023-05-08T09:30:58.116Z,1120.00
2023-05-08T09:31:57.811Z,1133.00
2023-05-08T09:32:57.832Z,1148.00
2023-05-08T09:33:57.992Z,1156.00
2023-05-08T09:34:58.039Z,1160.00
2023-05-08T09:35:58.903Z,1161.00
2023-05-08T09:36:58.162Z,1167.00
2023-05-08T09:37:57.882Z,1183.00
2023-05-08T09:38:57.862Z,1184.00
2023-05-08T09:39:57.994Z,1191.00
2023-05-08T09:40:57.902Z,1200.00
2023-05-08T09:41:58.150Z,1194.00
2023-05-08T09:42:57.848Z,1111.00
2023-05-08T09:43:58.097Z,995.00
2023-05-08T09:44:57.866Z,1040.00
2023-05-08T09:45:57.944Z,1017.00
2023-05-08T09:46:57.908Z,1046.00
2023-05-08T09:47:58.012Z,1038.00
2023-05-08T09:48:57.976Z,1042.00
2023-05-08T09:49:57.984Z,1098.00
2023-05-08T09:50:58.156Z,1067.00
2023-05-08T09:51:58.192Z,1062.00
2023-05-08T09:52:58.190Z,1054.00
2023-05-08T09:53:58.220Z,1048.00
2023-05-08T09:54:58.218Z,1059.00
2023-05-08T09:55:58.348Z,1029.00
2023-05-08T09:56:58.316Z,1045.00
2023-05-08T09:57:58.503Z,1048.00
2023-05-08T09:58:58.447Z,1037.00
2023-05-08T09:59:58.479Z,1023.00
2023-05-08T10:00:58.582Z,1019.00
2023-05-08T10:01:58.631Z,1021.00
2023-05-08T10:02:58.678Z,1033.00
2023-05-08T10:03:58.816Z,1070.00
2023-05-08T10:04:58.838Z,1076.00
2023-05-08T10:05:58.867Z,1105.00
2023-05-08T10:06:59.134Z,1086.00
2023-05-08T10:07:58.953Z,1004.00
2023-05-08T10:08:59.026Z,1044.00
2023-05-08T10:09:59.064Z,991.00
2023-05-08T10:10:59.219Z,979.00
2023-05-08T10:11:59.729Z,975.00
2023-05-08T10:12:59.361Z,977.00
2023-05-08T10:14:00.212Z,1009.00
2023-05-08T10:14:59.379Z,996.00
2023-05-08T10:15:59.441Z,1004.00
2023-05-08T10:16:59.542Z,974.00
2023-05-08T10:17:59.559Z,986.00
2023-05-08T10:18:59.609Z,1005.00
2023-05-08T10:19:59.633Z,1074.00
2023-05-08T10:20:59.694Z,1070.00
2023-05-08T10:22:00.160Z,1090.00
2023-05-08T10:22:59.960Z,1096.00
2023-05-08T10:23:59.831Z,1070.00
2023-05-08T10:24:59.907Z,1087.00
2023-05-08T10:25:59.928Z,1084.00
2023-05-08T10:27:06.372Z,1101.00
2023-05-08T10:28:01.022Z,1122.00
2023-05-08T10:28:59.973Z,1136.00
2023-05-08T10:29:59.944Z,1132.00
2023-05-08T10:30:59.966Z,1084.00
2023-05-08T10:32:00.163Z,1064.00
2023-05-08T10:32:59.942Z,1060.00
2023-05-08T10:33:59.931Z,1069.00
2023-05-08T10:34:59.941Z,1057.00
2023-05-08T10:35:59.887Z,1078.00
2023-05-08T10:37:00.271Z,1104.00
2023-05-08T10:38:00.549Z,1098.00
2023-05-08T10:38:59.957Z,1083.00
2023-05-08T10:39:59.983Z,1083.00
2023-05-08T10:41:00.030Z,1038.00
2023-05-08T10:42:00.089Z,1049.00
2023-05-08T10:43:00.153Z,1061.00
2023-05-08T10:44:02.556Z,1040.00
2023-05-08T10:45:00.246Z,1056.00
2023-05-08T10:46:00.269Z,1067.00
2023-05-08T10:47:00.677Z,1066.00
2023-05-08T10:48:00.200Z,917.00
2023-05-08T10:49:00.161Z,896.00
2023-05-08T10:50:00.269Z,849.00
2023-05-08T10:51:00.152Z,817.00
2023-05-08T10:52:00.171Z,775.00
2023-05-08T10:53:00.118Z,749.00
2023-05-08T10:54:00.109Z,725.00
2023-05-08T10:55:00.128Z,698.00
2023-05-08T10:56:00.137Z,688.00
2023-05-08T10:57:00.154Z,679.00
2023-05-08T10:58:00.103Z,669.00
2023-05-08T10:59:00.109Z,657.00
2023-05-08T11:00:00.147Z,658.00
2023-05-08T11:01:00.146Z,667.00
2023-05-08T11:02:00.244Z,669.00
2023-05-08T11:03:00.238Z,667.00
2023-05-08T11:04:00.282Z,666.00
2023-05-08T11:05:00.029Z,663.00
2023-05-08T11:06:00.059Z,661.00
2023-05-08T11:07:00.171Z,656.00
2023-05-08T11:08:00.117Z,651.00
2023-05-08T11:09:01.020Z,642.00
2023-05-08T11:10:00.013Z,630.00
2023-05-08T11:11:00.021Z,627.00
2023-05-08T11:12:00.251Z,623.00
2023-05-08T11:13:00.006Z,620.00
2023-05-08T11:13:59.986Z,618.00
2023-05-08T11:14:59.985Z,616.00
2023-05-08T11:16:00.005Z,616.00
2023-05-08T11:17:00.618Z,611.00
2023-05-08T11:17:59.957Z,607.00
2023-05-08T11:18:59.941Z,606.00
2023-05-08T11:19:59.946Z,609.00
2023-05-08T11:20:59.954Z,608.00
2023-05-08T11:21:59.937Z,605.00
2023-05-08T11:23:00.162Z,603.00
2023-05-08T11:23:59.898Z,601.00
2023-05-08T11:24:59.906Z,596.00
2023-05-08T11:25:59.880Z,594.00
2023-05-08T11:26:59.877Z,593.00
2023-05-08T11:28:00.185Z,592.00
2023-05-08T11:28:59.892Z,592.00
2023-05-08T11:29:59.906Z,653.00
2023-05-08T11:30:59.905Z,671.00
2023-05-08T11:31:59.939Z,669.00
2023-05-08T11:33:00.274Z,658.00
2023-05-08T11:33:59.862Z,651.00
2023-05-08T11:34:59.865Z,649.00
2023-05-08T11:35:59.871Z,651.00
2023-05-08T11:36:59.834Z,646.00
2023-05-08T11:37:59.812Z,642.00
2023-05-08T11:38:59.799Z,637.00
2023-05-08T11:39:59.821Z,630.00
2023-05-08T11:40:59.840Z,621.00
2023-05-08T11:41:59.835Z,616.00
2023-05-08T11:42:59.866Z,610.00
2023-05-08T11:43:59.790Z,605.00
2023-05-08T11:44:59.798Z,600.00
2023-05-08T11:45:59.794Z,596.00
2023-05-08T11:46:59.866Z,596.00
2023-05-08T11:47:59.890Z,599.00
2023-05-08T11:48:59.886Z,601.00
2023-05-08T11:49:59.949Z,605.00
2023-05-08T11:50:59.945Z,604.00
2023-05-08T11:52:00.105Z,601.00
2023-05-08T11:53:00.031Z,593.00
2023-05-08T11:54:00.095Z,589.00
2023-05-08T11:55:00.063Z,590.00
2023-05-08T11:56:00.128Z,591.00
2023-05-08T11:57:00.083Z,590.00
2023-05-08T11:58:00.132Z,586.00
2023-05-08T11:59:00.174Z,588.00
2023-05-08T12:00:00.184Z,590.00
2023-05-08T12:01:00.296Z,596.00
2023-05-08T12:02:08.508Z,600.00
2023-05-08T12:03:01.407Z,600.00
2023-05-08T12:04:00.371Z,598.00
2023-05-08T12:05:00.286Z,593.00
2023-05-08T12:06:00.287Z,590.00
2023-05-08T12:07:00.225Z,585.00
2023-05-08T12:08:00.203Z,585.00
2023-05-08T12:09:00.212Z,586.00
2023-05-08T12:10:00.218Z,589.00
2023-05-08T12:11:00.234Z,590.00
2023-05-08T12:12:00.212Z,587.00
2023-05-08T12:13:00.286Z,590.00
2023-05-08T12:14:00.188Z,592.00
2023-05-08T12:15:00.180Z,596.00
2023-05-08T12:16:00.189Z,597.00
2023-05-08T12:17:00.184Z,599.00
2023-05-08T12:18:00.200Z,601.00
2023-05-08T12:19:00.143Z,601.00
2023-05-08T12:20:00.184Z,602.00
2023-05-08T12:21:00.180Z,600.00
2023-05-08T12:22:00.172Z,599.00
2023-05-08T12:23:00.166Z,597.00